Time;durP1;ratioP1;P1;durP2;ratioP2;P2;SDS_P1;SDS_P2;PMS_P1;PMS_P2;Temp;Humidity;BMP_temperature;BMP_pressure;BME280_temperature;BME280_humidity;BME280_pressure;Samples;Min_cycle;Max_cycle;Signal;HPM_P1;HPM_P2
2021/11/05 07:22:28;;;;;;;5.97;3.55;;;;;;;5.80;100.00;97293.25;5111007;27;20380;-71
2021/11/05 07:24:54;;;;;;;5.63;3.00;;;;;;;5.67;100.00;97298.56;5111071;28;20483;-71
2021/11/05 07:27:19;;;;;;;5.73;2.63;;;;;;;5.54;100.00;97301.97;5110976;28;20028;-71
2021/11/05 07:29:45;;;;;;;6.53;2.80;;;;;;;5.58;100.00;97314.53;5111056;28;20472;-71
2021/11/05 07:32:11;;;;;;;5.07;2.55;;;;;;;5.46;100.00;97308.78;5110731;28;20036;-71
2021/11/05 07:34:38;;;;;;;7.30;2.85;;;;;;;5.44;100.00;97317.13;5091584;28;20019;-71
2021/11/05 07:37:11;;;;;;;5.72;2.70;;;;;;;5.49;100.00;97319.75;5091562;28;20477;-71
2021/11/05 07:39:37;;;;;;;4.47;2.15;;;;;;;5.43;100.00;97328.94;5109847;28;20440;-71
2021/11/05 07:42:02;;;;;;;4.93;2.33;;;;;;;5.45;100.00;97331.34;5091026;28;20044;-71
2021/11/05 07:44:27;;;;;;;5.95;2.33;;;;;;;5.50;100.00;97337.44;5110286;28;20031;-71
2021/11/05 07:46:53;;;;;;;4.75;2.47;;;;;;;5.53;100.00;97354.06;5110476;28;20024;-72
2021/11/05 07:49:18;;;;;;;6.23;2.30;;;;;;;5.48;100.00;97354.91;5110578;28;20020;-71
2021/11/05 07:51:44;;;;;;;4.07;2.17;;;;;;;5.50;100.00;97363.50;5091847;28;20377;-72
2021/11/05 07:54:09;;;;;;;4.97;2.50;;;;;;;5.56;100.00;97365.00;5092265;28;20044;-72
2021/11/05 07:56:36;;;;;;;4.17;2.00;;;;;;;5.55;100.00;97363.41;5110368;28;20027;-71
2021/11/05 07:59:03;;;;;;;4.82;2.22;;;;;;;5.51;100.00;97368.56;5110388;28;20477;-71
2021/11/05 08:01:29;;;;;;;4.03;2.10;;;;;;;5.54;100.00;97372.59;5109738;28;20024;-71
2021/11/05 08:03:54;;;;;;;5.40;2.55;;;;;;;5.64;100.00;97375.09;5110196;28;20462;-72
2021/11/05 08:06:19;;;;;;;5.00;2.33;;;;;;;5.72;100.00;97385.19;5091873;28;20028;-71
2021/11/05 08:08:44;;;;;;;4.60;2.40;;;;;;;5.74;100.00;97379.56;5110125;28;20028;-71
2021/11/05 08:11:12;;;;;;;4.57;2.50;;;;;;;5.80;100.00;97381.88;5091478;28;20131;-72
2021/11/05 08:13:37;;;;;;;4.65;2.30;;;;;;;5.82;100.00;97390.44;5091795;28;20030;-71
2021/11/05 08:16:03;;;;;;;5.30;2.20;;;;;;;5.88;100.00;97392.00;5091654;28;20032;-71
2021/11/05 08:18:28;;;;;;;6.47;2.85;;;;;;;5.93;100.00;97403.75;5109910;28;20469;-72
2021/11/05 08:20:54;;;;;;;5.40;2.50;;;;;;;5.90;100.00;97408.59;5091040;28;20367;-72
2021/11/05 08:23:19;;;;;;;4.40;2.30;;;;;;;5.98;100.00;97409.84;5109938;28;20027;-71
2021/11/05 08:25:47;;;;;;;4.93;2.30;;;;;;;6.18;100.00;97416.81;5108581;28;20077;-71
2021/11/05 08:28:14;;;;;;;4.35;2.28;;;;;;;6.18;100.00;97414.91;5108438;28;20041;-71
2021/11/05 08:30:40;;;;;;;3.95;2.22;;;;;;;6.32;100.00;97420.38;5109236;28;20039;-71
2021/11/05 08:33:06;;;;;;;4.28;2.17;;;;;;;6.36;100.00;97424.06;5100233;28;20028;-71
2021/11/05 08:35:32;;;;;;;4.07;2.20;;;;;;;6.48;100.00;97428.97;5096070;28;20024;-71
2021/11/05 08:37:59;;;;;;;3.92;2.08;;;;;;;6.50;100.00;97432.97;5096064;28;20066;-72
2021/11/05 08:40:25;;;;;;;3.92;2.08;;;;;;;6.62;100.00;97427.91;5077326;28;20081;-71
2021/11/05 08:42:50;;;;;;;3.37;2.10;;;;;;;6.66;100.00;97434.31;5095864;28;20067;-71
2021/11/05 08:45:16;;;;;;;2.80;1.80;;;;;;;6.75;100.00;97437.09;5095793;28;20103;-72
2021/11/05 08:47:43;;;;;;;3.15;1.60;;;;;;;6.71;100.00;97440.69;5095738;28;20020;-71
2021/11/05 08:50:16;;;;;;;3.95;1.90;;;;;;;6.75;100.00;97442.47;5095456;28;20035;-71
2021/11/05 08:52:42;;;;;;;4.43;1.90;;;;;;;6.73;100.00;97447.38;5095698;28;20024;-72
2021/11/05 08:55:09;;;;;;;3.87;1.70;;;;;;;6.67;100.00;97456.63;5095730;28;20037;-71
2021/11/05 08:57:35;;;;;;;3.75;1.73;;;;;;;6.65;100.00;97459.63;5094305;28;20031;-72
2021/11/05 09:00:04;;;;;;;2.53;1.40;;;;;;;6.69;100.00;97463.28;5095545;28;20031;-71
2021/11/05 09:02:29;;;;;;;4.10;1.60;;;;;;;6.85;100.00;97461.16;5077414;28;20016;-71
2021/11/05 09:04:54;;;;;;;3.83;1.67;;;;;;;6.80;100.00;97468.53;5077336;28;20023;-70
2021/11/05 09:07:20;;;;;;;3.38;1.60;;;;;;;6.89;100.00;97466.75;5095295;28;20024;-71
2021/11/05 09:09:45;;;;;;;2.53;1.20;;;;;;;6.87;100.00;97466.25;5077277;28;20024;-72
2021/11/05 09:12:10;;;;;;;3.07;1.77;;;;;;;7.03;100.00;97467.59;5094797;28;20020;-71
2021/11/05 09:14:36;;;;;;;3.33;1.50;;;;;;;7.10;100.00;97472.59;5095401;28;20385;-72
2021/11/05 09:17:02;;;;;;;2.57;1.40;;;;;;;7.35;100.00;97474.78;5095228;28;20103;-71
2021/11/05 09:19:28;;;;;;;3.00;1.60;;;;;;;7.61;100.00;97477.78;5095321;28;20016;-71
2021/11/05 09:21:53;;;;;;;3.20;1.60;;;;;;;7.79;100.00;97474.19;5076564;28;20032;-72
2021/11/05 09:24:19;;;;;;;2.87;1.20;;;;;;;8.00;98.96;97477.25;5077027;28;20062;-71
2021/11/05 09:26:44;;;;;;;2.83;1.23;;;;;;;8.36;96.94;97472.72;5094970;28;20485;-72
2021/11/05 09:29:10;;;;;;;2.63;1.50;;;;;;;8.67;94.84;97480.09;5094992;28;20028;-71
2021/11/05 09:31:35;;;;;;;4.57;1.63;;;;;;;8.58;92.73;97486.22;5076747;28;20031;-71
2021/11/05 09:34:00;;;;;;;2.77;1.47;;;;;;;8.59;94.55;97495.91;5094948;28;20031;-71
2021/11/05 09:36:26;;;;;;;3.13;1.37;;;;;;;8.48;94.32;97489.16;5095011;28;20027;-71
2021/11/05 09:38:51;;;;;;;3.47;1.40;;;;;;;8.41;95.01;97506.84;5094817;28;20397;-71
2021/11/05 09:41:17;;;;;;;2.85;1.50;;;;;;;8.18;96.41;97512.16;5076105;28;20106;-72
2021/11/05 09:43:43;;;;;;;2.97;1.70;;;;;;;8.14;97.29;97505.78;5093983;28;20032;-72
2021/11/05 09:46:09;;;;;;;2.97;1.65;;;;;;;7.95;96.66;97512.41;5076277;28;20020;-71
2021/11/05 09:48:38;;;;;;;3.92;1.92;;;;;;;7.68;97.77;97513.19;5076466;28;20035;-71
2021/11/05 09:51:06;;;;;;;4.10;2.00;;;;;;;7.71;98.06;97520.69;5076085;28;20013;-72
2021/11/05 09:53:35;;;;;;;3.75;1.85;;;;;;;7.63;99.16;97532.97;5094874;28;20032;-71
2021/11/05 09:56:03;;;;;;;5.37;1.93;;;;;;;7.65;99.72;97530.78;5094495;28;20511;-72
2021/11/05 09:58:28;;;;;;;3.70;1.70;;;;;;;7.61;100.00;97528.97;5094398;28;20024;-71
2021/11/05 10:00:54;;;;;;;3.77;1.77;;;;;;;7.55;99.45;97546.31;5093872;28;20085;-71
2021/11/05 10:03:19;;;;;;;4.47;2.10;;;;;;;7.60;99.61;97538.16;5076073;28;20119;-71
2021/11/05 10:05:44;;;;;;;3.97;1.90;;;;;;;7.70;100.00;97541.44;5076140;28;20077;-71
2021/11/05 10:08:10;;;;;;;4.90;2.30;;;;;;;7.91;99.73;97541.06;5094196;28;20489;-72
2021/11/05 10:10:40;;;;;;;5.00;2.20;;;;;;;7.93;99.54;97550.44;5075622;28;20389;-71
2021/11/05 10:13:10;;;;;;;4.80;2.55;;;;;;;8.06;97.43;97554.22;5092800;28;20028;-72
2021/11/05 10:15:43;;;;;;;5.43;2.50;;;;;;;8.12;96.44;97550.31;5092894;28;20040;-72
2021/11/05 10:18:16;;;;;;;6.53;2.70;;;;;;;7.95;96.55;97555.53;5094097;28;20016;-72
2021/11/05 10:20:43;;;;;;;5.93;3.20;;;;;;;8.06;95.06;97559.63;5093497;28;20038;-72
2021/11/05 10:23:09;;;;;;;5.00;2.83;;;;;;;7.98;96.09;97555.72;5093846;28;20036;-72
2021/11/05 10:25:46;;;;;;;5.03;2.70;;;;;;;7.95;95.76;97556.34;5093948;28;20031;-71
2021/11/05 10:28:19;;;;;;;5.90;3.00;;;;;;;7.84;95.47;97560.31;5093893;28;20089;-72
2021/11/05 10:30:44;;;;;;;5.78;3.05;;;;;;;7.79;95.18;97561.22;5075264;28;20023;-72
2021/11/05 10:33:14;;;;;;;5.53;2.97;;;;;;;7.76;94.01;97564.50;5093811;28;20028;-72
2021/11/05 10:35:43;;;;;;;5.50;3.00;;;;;;;7.86;95.02;97555.44;5093694;28;20027;-71
2021/11/05 10:38:10;;;;;;;6.10;3.25;;;;;;;7.84;94.98;97568.41;5093641;28;20111;-72
2021/11/05 10:40:49;;;;;;;5.13;2.70;;;;;;;7.87;96.03;97570.50;5093082;28;20140;-71
2021/11/05 10:43:18;;;;;;;5.97;3.10;;;;;;;7.89;97.15;97559.44;5093640;28;20386;-71
2021/11/05 10:45:44;;;;;;;6.60;3.20;;;;;;;7.89;97.34;97573.69;5075451;28;20016;-71
2021/11/05 10:48:15;;;;;;;5.93;3.33;;;;;;;7.77;96.03;97570.69;5093485;28;20036;-71
2021/11/05 10:50:46;;;;;;;5.90;3.20;;;;;;;7.74;97.17;97577.47;5093287;28;20028;-71
2021/11/05 10:53:14;;;;;;;6.00;3.05;;;;;;;7.69;97.23;97571.38;5075296;28;20031;-72
2021/11/05 10:55:42;;;;;;;6.45;3.20;;;;;;;7.42;97.14;97574.84;5093257;28;20043;-71
2021/11/05 10:58:13;;;;;;;6.13;3.20;;;;;;;7.31;97.07;97576.13;5093402;28;20496;-72
2021/11/05 11:00:39;;;;;;;6.45;3.38;;;;;;;7.23;97.93;97576.78;5074768;28;20031;-72
2021/11/05 11:03:17;;;;;;;6.20;3.30;;;;;;;7.13;97.87;97580.44;5093285;28;20489;-71
2021/11/05 11:05:44;;;;;;;7.40;3.42;;;;;;;7.04;98.15;97579.50;5093241;28;20431;-72
2021/11/05 11:08:33;;;;;;;7.25;3.65;;;;;;;7.05;98.80;97591.88;5093152;28;20035;-72
2021/11/05 11:11:13;;;;;;;7.43;3.35;;;;;;;7.04;99.44;97587.56;5074735;28;20168;-71
2021/11/05 11:13:39;;;;;;;7.45;3.42;;;;;;;7.07;99.88;97589.69;5093117;28;20052;-71
2021/11/05 11:16:08;;;;;;;7.47;3.37;;;;;;;7.17;99.75;97592.25;5075100;28;20020;-71
2021/11/05 11:18:46;;;;;;;7.30;3.65;;;;;;;7.10;99.26;97591.81;5075033;28;20024;-71
2021/11/05 11:21:11;;;;;;;7.75;4.03;;;;;;;7.05;99.50;97597.25;5092670;28;20457;-71
2021/11/05 11:23:38;;;;;;;7.17;3.07;;;;;;;7.16;99.39;97587.13;5093029;28;20105;-71
2021/11/05 11:26:03;;;;;;;8.05;3.95;;;;;;;7.24;99.85;97595.34;5093135;28;20082;-72
2021/11/05 11:28:29;;;;;;;7.87;4.10;;;;;;;7.27;98.82;97594.75;5093071;28;20033;-72
2021/11/05 11:30:54;;;;;;;9.00;4.00;;;;;;;7.39;98.31;97595.06;5074691;28;20607;-71
2021/11/05 11:33:21;;;;;;;7.83;3.87;;;;;;;7.43;98.69;97588.00;5092910;28;20031;-71
2021/11/05 11:35:47;;;;;;;9.02;4.00;;;;;;;7.50;98.17;97590.31;5093009;28;20256;-71
2021/11/05 11:38:15;;;;;;;7.40;3.70;;;;;;;7.49;97.26;97596.78;5074735;28;20035;-72
2021/11/05 11:40:41;;;;;;;7.28;3.78;;;;;;;7.56;96.11;97601.78;5074411;28;20046;-72
2021/11/05 11:43:07;;;;;;;8.02;3.90;;;;;;;7.64;95.20;97595.72;5092888;28;20107;-72
2021/11/05 11:45:32;;;;;;;7.70;4.00;;;;;;;7.71;95.46;97601.53;5092906;28;20089;-71
2021/11/05 11:47:59;;;;;;;6.50;3.33;;;;;;;7.81;95.38;97602.16;5093058;28;20466;-72
2021/11/05 11:50:28;;;;;;;6.82;3.67;;;;;;;7.86;96.47;97610.13;5092472;28;20310;-71
2021/11/05 11:53:02;;;;;;;7.22;3.55;;;;;;;7.91;94.85;97603.84;5092807;28;20062;-71
2021/11/05 11:55:27;;;;;;;6.88;3.47;;;;;;;7.98;93.82;97604.25;5074654;28;20039;-70
2021/11/05 11:58:17;;;;;;;6.97;3.33;;;;;;;8.06;91.57;97606.25;5092805;28;20473;-72
2021/11/05 12:00:45;;;;;;;6.15;3.00;;;;;;;8.10;90.06;97603.75;5074196;28;20024;-71
2021/11/05 12:03:15;;;;;;;6.72;3.15;;;;;;;8.07;87.06;97613.25;5092681;28;20085;-71
2021/11/05 12:05:46;;;;;;;6.82;3.00;;;;;;;8.04;86.18;97610.31;5092648;28;20127;-71
2021/11/05 12:08:19;;;;;;;6.22;3.00;;;;;;;8.03;85.42;97612.22;5094669;28;20385;-71
2021/11/05 12:10:49;;;;;;;6.97;2.97;;;;;;;8.19;85.63;97616.22;5096100;28;20089;-71
2021/11/05 12:13:35;;;;;;;6.88;3.33;;;;;;;8.27;87.93;97607.44;5096516;28;20461;-73
2021/11/05 12:16:09;;;;;;;6.10;3.15;;;;;;;8.40;86.82;97610.44;5055124;28;20133;-71
2021/11/05 12:19:03;;;;;;;6.50;3.28;;;;;;;8.43;86.96;97616.06;5096350;28;20027;-71
2021/11/05 12:21:35;;;;;;;7.38;3.70;;;;;;;8.34;86.82;97620.53;5095823;28;20020;-71
2021/11/05 12:24:13;;;;;;;7.37;3.87;;;;;;;8.09;86.78;97613.75;5077942;28;20040;-72
2021/11/05 12:26:43;;;;;;;7.53;4.03;;;;;;;8.07;87.00;97626.72;5096366;28;20028;-71
2021/11/05 12:29:09;;;;;;;7.43;3.67;;;;;;;8.00;87.76;97622.81;5096124;28;20504;-72
2021/11/05 12:31:37;;;;;;;7.32;3.88;;;;;;;7.86;86.80;97620.91;5095735;28;20023;-71
2021/11/05 12:34:25;;;;;;;7.70;4.32;;;;;;;7.86;87.50;97618.22;5096029;28;20469;-72
2021/11/05 12:36:57;;;;;;;8.03;3.87;;;;;;;7.98;89.91;97620.41;5077882;28;20078;-72
2021/11/05 12:39:33;;;;;;;6.88;3.72;;;;;;;8.15;89.08;97626.03;5077791;28;20051;-71
2021/11/05 12:42:02;;;;;;;7.57;3.95;;;;;;;8.23;88.69;97621.84;5095532;28;20028;-72
2021/11/05 12:44:46;;;;;;;7.40;4.18;;;;;;;8.33;87.44;97623.53;5095821;28;20028;-71
2021/11/05 12:47:11;;;;;;;8.20;4.28;;;;;;;8.33;86.00;97624.34;5077824;28;20031;-72
2021/11/05 12:49:36;;;;;;;7.30;3.87;;;;;;;8.46;86.56;97623.53;5077640;28;20020;-72
2021/11/05 12:52:02;;;;;;;7.20;3.67;;;;;;;8.47;84.14;97627.81;5095377;28;20028;-72
2021/11/05 12:54:27;;;;;;;7.17;3.90;;;;;;;8.35;83.99;97624.03;5077570;28;20490;-72
2021/11/05 12:56:55;;;;;;;7.17;3.80;;;;;;;8.38;84.07;97629.66;5077586;28;20298;-72
2021/11/05 12:59:24;;;;;;;7.00;4.07;;;;;;;8.41;85.33;97622.84;5077271;28;20028;-72
2021/11/05 13:02:01;;;;;;;8.03;4.20;;;;;;;8.46;84.96;97628.13;5095113;28;20495;-72
2021/11/05 13:04:30;;;;;;;7.70;4.30;;;;;;;8.47;84.09;97630.53;5077327;28;20439;-71
2021/11/05 13:06:59;;;;;;;7.53;4.00;;;;;;;8.46;82.62;97639.72;5095423;28;20031;-72
2021/11/05 13:09:28;;;;;;;7.07;4.07;;;;;;;8.42;82.52;97632.53;5077236;28;20024;-72
2021/11/05 13:11:59;;;;;;;8.77;4.18;;;;;;;8.26;83.22;97629.31;5076793;28;20024;-72
2021/11/05 13:14:57;;;;;;;8.60;4.80;;;;;;;8.32;83.03;97635.41;5095339;28;20473;-72
2021/11/05 13:17:37;;;;;;;6.97;4.00;;;;;;;8.24;82.23;97637.69;5094548;28;20036;-72
2021/11/05 13:20:19;;;;;;;8.23;4.43;;;;;;;8.27;83.49;97636.31;5094759;28;20027;-72
2021/11/05 13:22:47;;;;;;;8.10;4.70;;;;;;;8.31;86.24;97647.34;5077001;28;20024;-72
2021/11/05 13:25:13;;;;;;;8.40;4.88;;;;;;;8.33;86.58;97650.50;5076888;28;20489;-72
2021/11/05 13:27:39;;;;;;;10.03;4.73;;;;;;;8.26;86.34;97656.28;5076958;28;20024;-72
2021/11/05 13:30:06;;;;;;;8.60;4.55;;;;;;;8.20;86.69;97655.56;5094603;28;20132;-72
2021/11/05 13:32:31;;;;;;;8.82;4.80;;;;;;;8.19;88.85;97661.25;5094969;28;20028;-73
2021/11/05 13:34:57;;;;;;;8.93;4.90;;;;;;;8.12;87.77;97658.16;5094827;28;20469;-72
2021/11/05 13:37:27;;;;;;;9.23;5.17;;;;;;;8.25;88.35;97663.56;5076741;28;20023;-72
2021/11/05 13:39:54;;;;;;;9.25;4.85;;;;;;;8.24;88.96;97661.97;5094770;28;20077;-72
2021/11/05 13:42:24;;;;;;;8.93;5.05;;;;;;;8.16;87.43;97664.56;5094303;28;20020;-72
2021/11/05 13:45:06;;;;;;;9.20;4.95;;;;;;;8.25;88.42;97660.06;5094899;28;20496;-72
2021/11/05 13:47:31;;;;;;;10.00;5.30;;;;;;;8.30;88.38;97656.50;5094649;28;20393;-72
2021/11/05 13:50:04;;;;;;;11.68;5.53;;;;;;;8.30;88.06;97665.38;5094635;28;20035;-72
2021/11/05 13:52:29;;;;;;;9.60;5.07;;;;;;;8.34;87.89;97668.28;5076269;28;20026;-71
2021/11/05 13:54:55;;;;;;;9.30;4.37;;;;;;;8.34;87.70;97668.28;5076354;28;20393;-72
2021/11/05 13:57:20;;;;;;;11.03;5.43;;;;;;;8.29;86.55;97684.53;5094509;28;20190;-72
2021/11/05 13:59:52;;;;;;;11.07;5.60;;;;;;;8.27;88.09;97685.66;5094357;28;20024;-72
2021/11/05 14:02:18;;;;;;;13.97;6.90;;;;;;;8.13;88.20;97686.72;5094018;28;20030;-72
2021/11/05 14:04:46;;;;;;;10.88;5.68;;;;;;;8.07;87.89;97698.72;5094184;28;20052;-72
2021/11/05 14:07:12;;;;;;;9.60;4.57;;;;;;;7.96;85.67;97694.59;5094182;28;20054;-72
2021/11/05 14:09:37;;;;;;;9.85;5.05;;;;;;;7.91;86.32;97695.47;5094338;28;20137;-72
2021/11/05 14:12:11;;;;;;;10.73;5.73;;;;;;;7.87;86.45;97699.88;5093829;28;20052;-71
2021/11/05 14:14:36;;;;;;;11.60;5.60;;;;;;;7.80;88.41;97696.75;5076087;28;20043;-71
2021/11/05 14:17:11;;;;;;;9.80;5.30;;;;;;;7.79;88.04;97708.63;5092782;28;20520;-72
2021/11/05 14:19:36;;;;;;;10.88;5.47;;;;;;;7.77;89.13;97708.91;5094199;28;20020;-71
2021/11/05 14:22:05;;;;;;;9.70;4.70;;;;;;;7.66;89.67;97710.19;5075480;28;20047;-72
2021/11/05 14:24:34;;;;;;;9.52;5.20;;;;;;;7.70;89.68;97713.09;5075833;28;20028;-72
2021/11/05 14:27:23;;;;;;;9.85;5.35;;;;;;;7.65;89.77;97719.38;5093787;28;20024;-72
2021/11/05 14:29:51;;;;;;;10.20;5.43;;;;;;;7.64;90.53;97720.44;5093568;28;20112;-72
2021/11/05 14:32:36;;;;;;;13.43;6.00;;;;;;;7.70;91.96;97723.84;5093400;28;20056;-72
2021/11/05 14:35:11;;;;;;;11.50;5.57;;;;;;;7.56;92.97;97720.31;5075394;28;20482;-72
2021/11/05 14:37:36;;;;;;;13.38;7.00;;;;;;;7.55;92.75;97724.09;5104112;28;20028;-71
2021/11/05 14:40:15;;;;;;;10.30;5.70;;;;;;;7.63;93.19;97731.50;5114250;28;20080;-72
2021/11/05 14:42:41;;;;;;;11.10;5.80;;;;;;;7.65;93.85;97734.72;5114196;28;20028;-73
2021/11/05 14:45:28;;;;;;;11.63;6.40;;;;;;;7.67;94.57;97730.63;5095972;28;20160;-72
2021/11/05 14:47:55;;;;;;;11.90;5.97;;;;;;;7.60;94.33;97732.13;5092666;28;20019;-72
2021/11/05 14:50:24;;;;;;;11.80;6.13;;;;;;;7.54;95.04;97739.47;5093491;28;20034;-72
2021/11/05 14:53:44;;;;;;;12.15;6.88;;;;;;;7.48;95.25;97736.03;5075570;28;20020;-72
2021/11/05 14:56:46;;;;;;;13.65;7.00;;;;;;;8.19;96.76;97734.06;5075614;28;20028;-83
2021/11/05 14:59:17;;;;;;;11.73;6.93;;;;;;;7.61;94.77;97737.19;5070136;28;20085;-74
2021/11/05 15:01:43;;;;;;;11.52;6.38;;;;;;;7.50;95.48;97740.34;5072425;28;20019;-73
2021/11/05 18:16:30;;;;;;;25.02;11.18;;;;;;;5.06;100.00;97944.06;5117774;27;20407;-63
2021/11/05 18:18:56;;;;;;;21.27;9.20;;;;;;;5.12;100.00;97950.22;5114539;28;20043;-62
2021/11/05 18:21:23;;;;;;;20.83;9.60;;;;;;;5.27;100.00;97947.50;5112980;28;20102;-62
2021/11/05 18:23:50;;;;;;;21.65;9.02;;;;;;;5.39;100.00;97948.00;5113332;28;20027;-63
2021/11/05 18:26:16;;;;;;;17.75;8.38;;;;;;;5.48;100.00;97942.84;5113575;28;20382;-63
2021/11/05 18:28:41;;;;;;;17.50;8.75;;;;;;;5.58;100.00;97955.44;5111082;28;20023;-63
2021/11/05 18:31:06;;;;;;;17.13;7.80;;;;;;;5.62;100.00;97954.59;5116228;28;20085;-63
2021/11/05 18:33:32;;;;;;;20.50;7.93;;;;;;;5.58;100.00;97953.56;5114822;28;20500;-63
2021/11/05 18:35:57;;;;;;;17.90;7.90;;;;;;;5.57;100.00;97954.63;5115901;28;20023;-63
2021/11/05 18:38:22;;;;;;;15.90;7.90;;;;;;;5.62;100.00;97953.81;5114022;28;20111;-63
2021/11/05 18:40:48;;;;;;;15.98;7.82;;;;;;;5.74;100.00;97959.69;5114022;28;20252;-62
2021/11/05 18:43:15;;;;;;;17.30;7.43;;;;;;;5.66;100.00;97962.94;5114094;28;20389;-63
2021/11/05 18:45:41;;;;;;;16.80;8.10;;;;;;;5.70;100.00;97966.66;5117153;28;20015;-63
2021/11/05 18:48:09;;;;;;;15.48;7.65;;;;;;;5.77;100.00;97962.59;5114315;27;20471;-63
2021/11/05 18:50:36;;;;;;;15.35;7.68;;;;;;;5.78;100.00;97972.25;5115076;28;20050;-63
2021/11/05 18:53:02;;;;;;;14.30;7.45;;;;;;;5.85;100.00;97972.78;5113904;28;20122;-63
2021/11/05 18:55:28;;;;;;;14.95;7.30;;;;;;;5.90;100.00;97975.44;5113911;27;20536;-63
2021/11/05 18:57:55;;;;;;;15.13;7.60;;;;;;;5.92;100.00;97982.44;5115310;28;20031;-64
2021/11/05 19:00:34;;;;;;;14.70;7.68;;;;;;;5.85;100.00;97971.97;5112995;28;20027;-64
2021/11/05 19:02:59;;;;;;;13.77;7.80;;;;;;;6.02;100.00;97983.19;5113635;28;20073;-64
2021/11/05 19:05:25;;;;;;;17.07;8.20;;;;;;;5.96;100.00;97984.31;5113035;28;20373;-63
2021/11/05 19:07:50;;;;;;;17.95;8.63;;;;;;;5.92;100.00;97985.13;5113671;28;20047;-63
2021/11/05 19:10:16;;;;;;;16.13;7.83;;;;;;;6.01;100.00;97996.91;5113422;28;20046;-63
2021/11/05 19:12:41;;;;;;;17.17;8.90;;;;;;;6.00;100.00;98000.66;5114845;28;20059;-63
2021/11/05 19:15:09;;;;;;;16.80;8.25;;;;;;;6.05;100.00;97997.94;5113210;28;20028;-63
2021/11/05 19:17:36;;;;;;;17.08;8.05;;;;;;;5.94;100.00;98001.78;5114148;28;20426;-63
2021/11/05 19:20:05;;;;;;;15.85;8.00;;;;;;;5.95;100.00;98008.75;5112961;27;20453;-63
2021/11/05 19:22:31;;;;;;;13.70;7.07;;;;;;;5.94;100.00;97999.09;5112616;28;20104;-63
2021/11/05 19:24:56;;;;;;;14.77;7.20;;;;;;;5.93;100.00;98005.53;5112263;28;20028;-63
2021/11/05 19:27:22;;;;;;;16.73;7.47;;;;;;;5.97;100.00;98009.31;5102066;28;20397;-63
2021/11/05 19:29:47;;;;;;;13.67;6.93;;;;;;;6.00;100.00;98014.09;5099130;28;20462;-63
2021/11/05 19:32:12;;;;;;;16.63;8.00;;;;;;;6.02;100.00;98009.25;5098419;28;20394;-63
2021/11/05 19:34:38;;;;;;;16.07;7.27;;;;;;;6.00;100.00;98014.91;5098387;28;20206;-63
2021/11/05 19:37:05;;;;;;;15.45;7.55;;;;;;;5.96;100.00;98016.56;5099708;28;20055;-63
2021/11/05 19:39:31;;;;;;;16.05;8.07;;;;;;;5.96;100.00;98015.75;5099824;28;20051;-63
2021/11/05 19:41:57;;;;;;;16.13;8.00;;;;;;;6.07;100.00;98028.84;5099810;28;20019;-63
2021/11/05 19:44:23;;;;;;;18.52;8.55;;;;;;;6.16;100.00;98026.41;5099396;28;20020;-63
2021/11/05 19:46:49;;;;;;;15.50;7.53;;;;;;;6.25;100.00;98040.88;5099916;28;20470;-62
2021/11/05 19:49:15;;;;;;;14.27;7.20;;;;;;;6.24;100.00;98032.00;5098223;28;20082;-63
2021/11/05 19:51:41;;;;;;;14.00;7.57;;;;;;;6.27;100.00;98041.38;5098135;28;20106;-63
2021/11/05 19:54:07;;;;;;;17.25;8.90;;;;;;;6.22;100.00;98052.16;5099133;28;20038;-63
2021/11/05 19:56:32;;;;;;;17.57;8.83;;;;;;;6.24;100.00;98042.75;5100364;28;20035;-62
2021/11/05 19:59:00;;;;;;;18.67;9.30;;;;;;;6.33;100.00;98052.91;5099588;28;21181;-63
2021/11/05 20:01:26;;;;;;;18.30;8.70;;;;;;;6.24;100.00;98048.13;5097467;28;20028;-63
2021/11/05 20:03:53;;;;;;;18.58;9.88;;;;;;;6.20;100.00;98054.31;5098276;28;20428;-63
2021/11/05 20:06:19;;;;;;;19.70;9.77;;;;;;;6.32;100.00;98048.63;5098139;28;20085;-63
2021/11/05 20:08:45;;;;;;;20.55;10.18;;;;;;;6.31;100.00;98049.69;5100647;28;20112;-63
2021/11/05 20:11:11;;;;;;;20.77;10.52;;;;;;;6.42;100.00;98057.41;5096201;28;20557;-62
2021/11/05 20:13:37;;;;;;;21.50;11.17;;;;;;;6.40;100.00;98053.41;5099925;28;20065;-63
2021/11/05 20:16:03;;;;;;;21.13;10.70;;;;;;;6.41;100.00;98063.06;5098176;28;20062;-63
2021/11/05 20:18:28;;;;;;;21.50;10.65;;;;;;;6.48;100.00;98060.88;5101340;28;20031;-63
2021/11/05 20:48:52;;;;;;;18.65;10.63;;;;;;;7.84;100.00;98077.75;5031935;27;20368;-56
2021/11/05 20:51:18;;;;;;;18.47;9.77;;;;;;;7.61;100.00;98082.03;5024344;28;20057;-56
2021/11/05 20:53:43;;;;;;;15.20;8.35;;;;;;;7.74;100.00;98092.13;5021730;28;20049;-58
2021/11/05 20:56:13;;;;;;;16.23;8.83;;;;;;;7.66;99.55;98089.28;5018253;28;20069;-57
2021/11/05 20:58:40;;;;;;;16.13;8.33;;;;;;;7.60;99.42;98085.03;5023617;28;20096;-57
2021/11/05 21:01:07;;;;;;;16.50;7.75;;;;;;;7.19;99.47;98085.38;5025867;28;20021;-57
2021/11/05 21:07:38;;;;;;;15.67;8.13;;;;;;;6.89;100.00;98097.19;10372783;27;57842;-57
2021/11/05 21:12:40;;;;;;;17.90;8.73;;;;;;;6.87;100.00;98094.00;10343742;28;20042;-57
2021/11/05 21:17:40;;;;;;;16.67;8.40;;;;;;;7.27;100.00;98094.75;10342791;28;20034;-57
2021/11/05 21:22:41;;;;;;;15.23;8.00;;;;;;;7.24;100.00;98095.34;10354178;28;20033;-58
2021/11/05 21:27:41;;;;;;;14.00;6.83;;;;;;;7.11;100.00;98087.88;10352184;28;20033;-57
2021/11/05 21:32:42;;;;;;;13.70;6.13;;;;;;;7.39;99.83;98092.47;10352850;28;20038;-57
2021/11/05 21:37:43;;;;;;;12.90;6.33;;;;;;;6.94;99.71;98102.56;10347777;28;20112;-58
2021/11/05 21:42:44;;;;;;;14.32;6.47;;;;;;;6.92;100.00;98099.34;10347044;28;20130;-57
2021/11/05 21:47:46;;;;;;;15.45;6.63;;;;;;;7.05;100.00;98095.19;10352165;28;20401;-58
2021/11/05 21:52:47;;;;;;;11.63;5.83;;;;;;;7.40;99.68;98094.09;10349784;28;20042;-57
2021/11/05 21:57:48;;;;;;;12.20;6.00;;;;;;;7.33;98.55;98102.50;10342359;28;20026;-58
2021/11/05 22:02:50;;;;;;;11.50;6.10;;;;;;;7.37;98.28;98103.56;10350786;28;20143;-57
2021/11/05 22:07:50;;;;;;;12.93;6.30;;;;;;;7.32;97.82;98108.97;10342259;28;20030;-57
2021/11/05 22:12:51;;;;;;;10.68;5.68;;;;;;;7.31;97.22;98115.47;10352554;28;20511;-57
2021/11/05 22:17:52;;;;;;;14.00;6.23;;;;;;;7.10;98.34;98121.28;10325746;28;20574;-57
2021/11/05 22:22:52;;;;;;;13.10;6.30;;;;;;;7.03;98.40;98117.00;10314539;28;20121;-58
2021/11/05 22:27:53;;;;;;;10.63;5.93;;;;;;;7.30;97.15;98131.91;10319970;28;20046;-58
2021/11/05 22:32:53;;;;;;;12.57;6.27;;;;;;;6.57;97.80;98132.66;10319614;28;20377;-58
2021/11/05 22:37:55;;;;;;;11.30;5.87;;;;;;;6.39;98.50;98146.72;10305028;28;20030;-57
